Time;durP1;ratioP1;P1;durP2;ratioP2;P2;SDS_P1;SDS_P2;PMS_P1;PMS_P2;Temp;Humidity;BMP_temperature;BMP_pressure;BME280_temperature;BME280_humidity;BME280_pressure;Samples;Min_cycle;Max_cycle;Signal;HPM_P1;HPM_P2
2021/01/23 00:00:45;;;;;;;22.60;20.55;;;25.00;76.20;;;;;;4975977;28;20276;-57
2021/01/23 00:03:16;;;;;;;24.55;22.30;;;25.00;76.30;;;;;;4972557;28;20247;-56
2021/01/23 00:05:47;;;;;;;23.92;21.63;;;25.00;76.40;;;;;;4974988;28;20776;-53
2021/01/23 00:08:18;;;;;;;22.20;20.15;;;25.10;76.60;;;;;;4980302;28;20229;-54
2021/01/23 00:10:49;;;;;;;22.25;20.27;;;25.00;76.70;;;;;;4976891;28;20236;-55
2021/01/23 00:13:21;;;;;;;23.02;21.00;;;25.00;76.80;;;;;;4975935;28;20233;-55
2021/01/23 00:15:52;;;;;;;24.25;22.02;;;25.00;77.00;;;;;;4985596;28;20248;-57
2021/01/23 00:18:23;;;;;;;25.25;22.95;;;25.10;77.00;;;;;;4970200;28;20258;-56
2021/01/23 00:20:54;;;;;;;23.08;20.85;;;25.10;77.00;;;;;;4977983;28;20242;-56
2021/01/23 00:23:25;;;;;;;24.15;22.02;;;25.10;77.10;;;;;;4984158;28;20705;-55
2021/01/23 00:25:56;;;;;;;24.05;21.92;;;25.10;77.20;;;;;;4985854;28;20236;-55
2021/01/23 00:28:27;;;;;;;23.20;21.15;;;25.10;77.20;;;;;;4990099;28;20324;-55
2021/01/23 00:30:58;;;;;;;24.02;21.73;;;25.10;77.40;;;;;;5030690;28;20273;-54
2021/01/23 00:33:29;;;;;;;23.45;21.25;;;25.10;77.40;;;;;;5020564;28;20226;-57
2021/01/23 00:36:00;;;;;;;25.20;22.70;;;25.20;77.70;;;;;;5027860;28;20884;-57
2021/01/23 00:38:30;;;;;;;26.77;24.35;;;25.20;77.90;;;;;;5026452;28;20318;-56
2021/01/23 00:41:01;;;;;;;25.70;23.33;;;25.20;78.20;;;;;;5028555;28;20227;-53
2021/01/23 00:43:32;;;;;;;23.33;21.13;;;25.30;78.30;;;;;;5030148;28;20357;-57
2021/01/23 00:46:03;;;;;;;24.88;22.60;;;25.30;78.50;;;;;;5028584;28;20227;-57
2021/01/23 00:48:33;;;;;;;24.90;22.60;;;25.30;78.70;;;;;;5015265;28;20258;-56
2021/01/23 00:51:06;;;;;;;25.83;23.50;;;25.40;78.80;;;;;;5031058;28;20250;-55
2021/01/23 00:53:36;;;;;;;25.27;22.80;;;25.40;79.10;;;;;;5033392;28;20241;-55
2021/01/23 00:56:07;;;;;;;26.90;24.48;;;25.50;79.40;;;;;;5029818;28;20253;-56
2021/01/23 00:58:39;;;;;;;25.85;23.50;;;25.50;79.40;;;;;;5020683;28;20245;-52
2021/01/23 01:01:10;;;;;;;29.35;26.55;;;25.60;79.60;;;;;;5051115;28;20238;-55
2021/01/23 01:03:42;;;;;;;31.15;28.23;;;25.60;79.70;;;;;;5041560;28;20227;-56
2021/01/23 01:06:13;;;;;;;32.15;29.10;;;25.70;80.20;;;;;;5034106;28;20587;-55
2021/01/23 01:08:44;;;;;;;30.13;27.15;;;25.80;80.60;;;;;;5028190;28;20230;-57
2021/01/23 01:11:14;;;;;;;31.55;28.60;;;25.80;80.70;;;;;;5053077;28;20295;-55
2021/01/23 01:13:46;;;;;;;30.40;27.55;;;25.90;81.10;;;;;;5035603;28;20245;-53
2021/01/23 01:16:17;;;;;;;32.30;29.13;;;26.00;81.40;;;;;;5042918;28;20236;-56
2021/01/23 01:18:47;;;;;;;35.30;31.88;;;26.00;81.40;;;;;;5036413;28;20262;-57
2021/01/23 01:21:18;;;;;;;36.65;33.08;;;26.10;81.80;;;;;;5031685;28;20266;-54
2021/01/23 01:23:49;;;;;;;36.22;32.53;;;26.20;82.00;;;;;;5036875;28;20238;-50
2021/01/23 01:26:20;;;;;;;34.42;31.08;;;26.30;81.90;;;;;;5030595;28;20655;-56
2021/01/23 01:28:52;;;;;;;33.83;30.50;;;26.40;82.10;;;;;;5035953;28;20233;-54
2021/01/23 01:31:22;;;;;;;30.75;27.58;;;26.50;82.40;;;;;;5038504;28;20254;-57
2021/01/23 01:33:53;;;;;;;27.73;25.20;;;26.60;82.30;;;;;;5028817;28;20253;-58
2021/01/23 01:36:23;;;;;;;28.05;25.33;;;26.70;82.40;;;;;;5034356;28;20238;-54
2021/01/23 01:38:54;;;;;;;29.98;27.15;;;26.80;82.40;;;;;;5030910;28;20769;-53
2021/01/23 01:41:25;;;;;;;29.08;26.17;;;26.90;82.20;;;;;;5041603;28;20333;-55
2021/01/23 01:43:56;;;;;;;32.20;29.13;;;27.00;82.10;;;;;;5034662;28;20226;-56
2021/01/23 01:46:27;;;;;;;28.88;26.17;;;27.00;82.00;;;;;;5035334;28;20321;-57
2021/01/23 01:49:00;;;;;;;27.75;25.13;;;27.20;81.90;;;;;;5026476;28;20879;-57
2021/01/23 01:51:31;;;;;;;27.90;25.38;;;27.20;81.60;;;;;;5032426;28;20238;-57
2021/01/23 01:54:02;;;;;;;26.25;23.92;;;27.40;81.40;;;;;;5034065;28;20286;-57
2021/01/23 01:56:32;;;;;;;25.77;23.52;;;27.40;80.80;;;;;;5023138;28;20695;-57
2021/01/23 01:59:04;;;;;;;27.05;24.42;;;27.50;80.50;;;;;;5019883;28;20223;-57
2021/01/23 02:01:35;;;;;;;24.25;22.15;;;27.60;80.30;;;;;;5026193;28;20243;-56
2021/01/23 02:04:12;;;;;;;25.73;23.13;;;27.70;80.10;;;;;;5022244;28;20230;-57
2021/01/23 02:06:57;;;;;;;25.25;22.77;;;27.80;79.50;;;;;;5029160;28;20254;-55
2021/01/23 02:09:35;;;;;;;23.20;20.90;;;27.90;78.50;;;;;;5033002;28;20214;-55
2021/01/23 02:12:10;;;;;;;24.23;22.05;;;28.00;78.20;;;;;;5032560;28;20594;-57
2021/01/23 02:14:46;;;;;;;22.70;20.77;;;28.10;77.80;;;;;;5033984;28;20254;-56
2021/01/23 02:17:18;;;;;;;24.13;22.02;;;28.20;77.10;;;;;;5030882;28;20234;-57
2021/01/23 02:20:10;;;;;;;22.33;20.30;;;28.20;76.90;;;;;;5031479;28;20238;-57
2021/01/23 02:23:14;;;;;;;25.17;23.00;;;28.30;75.80;;;;;;5028017;28;20230;-57
2021/01/23 02:26:01;;;;;;;24.10;21.67;;;28.40;75.50;;;;;;5013035;28;20226;-57
2021/01/23 02:29:10;;;;;;;25.25;22.98;;;28.50;75.50;;;;;;4970430;28;20240;-57
2021/01/23 02:31:42;;;;;;;25.15;22.65;;;28.60;74.80;;;;;;4960186;28;20242;-57
2021/01/23 02:34:15;;;;;;;24.08;21.98;;;28.70;74.20;;;;;;4974179;28;20231;-57
2021/01/23 02:36:46;;;;;;;25.80;23.20;;;28.70;73.80;;;;;;4972119;28;20782;-57
2021/01/23 02:39:17;;;;;;;23.40;21.38;;;28.80;73.70;;;;;;4969462;28;20240;-57
2021/01/23 02:41:48;;;;;;;23.88;21.67;;;28.90;73.50;;;;;;4979346;28;20235;-57
2021/01/23 02:44:18;;;;;;;23.38;21.38;;;29.00;73.60;;;;;;4966963;28;20241;-57
2021/01/23 02:46:51;;;;;;;26.88;24.48;;;29.10;73.50;;;;;;4983402;28;20240;-57
2021/01/23 02:49:22;;;;;;;24.30;22.08;;;29.20;73.10;;;;;;4976070;28;20271;-58
2021/01/23 02:51:57;;;;;;;24.17;22.10;;;29.20;73.20;;;;;;4974748;28;20225;-57
2021/01/23 02:54:31;;;;;;;24.00;21.80;;;29.30;72.70;;;;;;5023768;28;20314;-55
2021/01/23 02:57:02;;;;;;;26.63;23.95;;;29.40;72.60;;;;;;5030563;28;20232;-54
2021/01/23 02:59:33;;;;;;;25.25;22.90;;;29.50;71.70;;;;;;5028396;28;20691;-58
2021/01/23 03:02:05;;;;;;;24.38;22.23;;;29.60;71.60;;;;;;5037799;28;20258;-55
2021/01/23 03:04:36;;;;;;;23.80;21.50;;;29.70;71.00;;;;;;5031375;28;20238;-55
2021/01/23 03:07:06;;;;;;;25.10;22.88;;;29.80;71.20;;;;;;5029249;28;20246;-57
2021/01/23 03:09:37;;;;;;;24.48;22.27;;;29.80;70.80;;;;;;5040771;28;20249;-53
2021/01/23 03:12:09;;;;;;;24.02;21.88;;;29.90;70.70;;;;;;5031320;28;20233;-56
2021/01/23 03:14:39;;;;;;;27.63;25.15;;;30.00;70.30;;;;;;5038590;28;20223;-58
2021/01/23 03:17:11;;;;;;;27.08;24.58;;;30.00;68.90;;;;;;5051282;28;20685;-55
2021/01/23 03:19:43;;;;;;;25.52;23.27;;;30.10;68.80;;;;;;5038099;28;20237;-56
2021/01/23 03:22:14;;;;;;;23.73;21.63;;;30.20;68.00;;;;;;5039179;28;20283;-56
2021/01/23 03:24:44;;;;;;;21.98;20.05;;;30.20;67.80;;;;;;5034016;28;20264;-57
2021/01/23 03:27:15;;;;;;;22.15;20.05;;;30.40;67.70;;;;;;5038050;28;20230;-57
2021/01/23 03:29:45;;;;;;;23.63;21.63;;;30.40;66.50;;;;;;5040774;28;20227;-58
2021/01/23 03:32:17;;;;;;;24.92;22.73;;;30.50;65.20;;;;;;5029251;28;20237;-58
2021/01/23 03:34:48;;;;;;;24.73;22.55;;;30.60;64.10;;;;;;5040935;28;20717;-56
2021/01/23 03:37:18;;;;;;;22.92;20.73;;;30.70;64.10;;;;;;5024746;28;20235;-55
2021/01/23 03:39:49;;;;;;;27.27;24.83;;;30.70;64.80;;;;;;5027134;28;20227;-56
2021/01/23 03:42:19;;;;;;;28.23;25.67;;;30.80;62.60;;;;;;5027139;28;20234;-58
2021/01/23 03:44:50;;;;;;;27.40;24.73;;;31.00;63.60;;;;;;5028874;28;20264;-56
2021/01/23 03:47:22;;;;;;;25.33;22.88;;;30.90;62.60;;;;;;5045056;28;20250;-53
2021/01/23 03:49:52;;;;;;;25.02;22.85;;;31.10;63.00;;;;;;5025530;28;20235;-54
2021/01/23 03:52:23;;;;;;;25.70;23.23;;;31.20;62.80;;;;;;5037770;28;20318;-58
2021/01/23 03:54:56;;;;;;;28.30;25.70;;;31.30;62.40;;;;;;5037362;28;20286;-60
2021/01/23 03:57:27;;;;;;;27.15;24.70;;;31.40;61.30;;;;;;5033317;28;20238;-51
2021/01/23 04:00:01;;;;;;;29.17;26.55;;;31.40;61.40;;;;;;5036478;28;20329;-58
2021/01/23 04:02:33;;;;;;;31.88;29.08;;;31.50;60.70;;;;;;5024208;28;20275;-56
2021/01/23 04:05:06;;;;;;;33.40;30.40;;;31.60;59.60;;;;;;5028332;28;20247;-56
2021/01/23 04:07:37;;;;;;;30.42;27.63;;;31.60;59.50;;;;;;5044524;28;20235;-58
2021/01/23 04:10:09;;;;;;;27.50;24.90;;;31.80;59.40;;;;;;5022006;28;20241;-58
2021/01/23 04:12:41;;;;;;;31.23;28.23;;;31.80;59.60;;;;;;5024907;28;20431;-58
2021/01/23 04:15:12;;;;;;;30.67;27.88;;;31.90;58.90;;;;;;5019817;28;20259;-57
2021/01/23 04:17:45;;;;;;;33.25;30.27;;;32.00;58.60;;;;;;5020538;28;20933;-58
2021/01/23 04:20:16;;;;;;;29.40;26.85;;;32.10;58.10;;;;;;5035060;28;20309;-56
2021/01/23 04:22:47;;;;;;;29.30;26.63;;;32.20;58.20;;;;;;5022304;28;20238;-54
2021/01/23 04:25:18;;;;;;;26.92;24.52;;;32.30;58.30;;;;;;5033505;28;20230;-56
2021/01/23 04:27:48;;;;;;;27.67;25.23;;;32.40;58.50;;;;;;5034732;28;20283;-58
2021/01/23 04:30:19;;;;;;;28.50;25.80;;;32.40;57.80;;;;;;5032415;28;20280;-56
2021/01/23 04:32:51;;;;;;;32.00;29.20;;;32.50;57.60;;;;;;5038206;28;20257;-58
2021/01/23 04:35:22;;;;;;;30.63;27.75;;;32.50;56.50;;;;;;5027002;28;20229;-56
2021/01/23 04:37:53;;;;;;;32.38;29.58;;;32.60;56.80;;;;;;5024845;28;20320;-57
2021/01/23 04:40:23;;;;;;;29.13;26.50;;;32.70;56.30;;;;;;5035006;28;20298;-58
2021/01/23 04:42:56;;;;;;;33.13;30.02;;;32.70;56.70;;;;;;5034614;28;20218;-56
2021/01/23 04:45:26;;;;;;;29.63;26.92;;;32.80;56.10;;;;;;5036082;28;20241;-59
2021/01/23 04:47:58;;;;;;;28.75;26.20;;;32.90;56.00;;;;;;5022190;28;20227;-57
2021/01/23 04:50:29;;;;;;;28.30;25.58;;;32.90;56.30;;;;;;5018763;28;20293;-59
2021/01/23 04:53:00;;;;;;;25.13;23.02;;;33.00;56.80;;;;;;5016147;28;20268;-59
2021/01/23 04:55:32;;;;;;;24.80;22.65;;;33.10;57.40;;;;;;5019644;28;20933;-58
2021/01/23 04:58:02;;;;;;;27.67;25.27;;;33.10;57.60;;;;;;5017848;28;20284;-55
2021/01/23 05:00:33;;;;;;;25.65;23.42;;;33.20;57.50;;;;;;5026748;28;20758;-57
2021/01/23 05:03:08;;;;;;;24.08;21.98;;;33.10;57.90;;;;;;5027871;28;20292;-59
2021/01/23 05:05:38;;;;;;;24.00;21.70;;;33.20;57.30;;;;;;5024823;28;20657;-56
2021/01/23 05:08:10;;;;;;;24.88;22.30;;;33.20;57.40;;;;;;5017095;28;20222;-56
2021/01/23 05:10:41;;;;;;;24.02;22.05;;;33.20;57.30;;;;;;5019324;28;20306;-58
2021/01/23 05:13:15;;;;;;;22.88;21.10;;;33.30;57.20;;;;;;5023772;28;20227;-54
2021/01/23 05:15:48;;;;;;;23.92;21.90;;;33.30;56.90;;;;;;5032294;28;20237;-58
2021/01/23 05:18:20;;;;;;;23.98;21.80;;;33.30;56.80;;;;;;5027399;28;20277;-56
2021/01/23 05:20:51;;;;;;;26.38;24.05;;;33.30;57.00;;;;;;5027098;28;20273;-57
2021/01/23 05:23:22;;;;;;;25.50;23.40;;;33.30;56.60;;;;;;5019278;28;20240;-58
2021/01/23 05:25:52;;;;;;;25.98;23.70;;;33.30;57.10;;;;;;5031535;28;20230;-55
2021/01/23 05:28:27;;;;;;;29.25;26.40;;;33.20;56.40;;;;;;5029779;28;20884;-56
2021/01/23 05:30:57;;;;;;;26.27;24.08;;;33.30;56.00;;;;;;5034558;28;20574;-53
2021/01/23 05:33:30;;;;;;;25.58;23.38;;;33.20;56.20;;;;;;5036183;28;20241;-57
2021/01/23 05:36:01;;;;;;;28.20;25.60;;;33.20;56.30;;;;;;5033746;28;20236;-54
2021/01/23 05:38:32;;;;;;;25.10;23.08;;;33.20;56.20;;;;;;5035033;28;20282;-52
2021/01/23 05:41:13;;;;;;;24.10;22.10;;;33.20;56.40;;;;;;5029555;28;20230;-53
2021/01/23 05:43:45;;;;;;;24.88;22.52;;;33.30;56.70;;;;;;5032654;28;20321;-56
2021/01/23 05:46:15;;;;;;;28.52;26.00;;;33.30;56.90;;;;;;5035507;28;20218;-52
2021/01/23 05:48:48;;;;;;;26.23;23.98;;;33.30;56.20;;;;;;5020790;28;20629;-53
2021/01/23 05:51:19;;;;;;;31.52;28.42;;;33.30;56.30;;;;;;5024956;28;20258;-54
2021/01/23 05:53:50;;;;;;;27.15;24.95;;;33.40;55.90;;;;;;5030719;28;20226;-53
2021/01/23 05:56:20;;;;;;;29.58;26.80;;;33.40;56.30;;;;;;5036030;28;22820;-52
2021/01/23 05:58:51;;;;;;;29.80;27.25;;;33.30;56.30;;;;;;5023070;28;20242;-56
2021/01/23 06:01:22;;;;;;;25.48;23.27;;;33.40;56.30;;;;;;5029130;28;20245;-53
2021/01/23 06:03:57;;;;;;;26.08;23.77;;;33.40;56.40;;;;;;5044237;28;20235;-53
2021/01/23 06:06:27;;;;;;;26.08;23.75;;;33.50;56.80;;;;;;5044699;28;20261;-54
2021/01/23 06:08:58;;;;;;;26.35;24.10;;;33.50;56.70;;;;;;4988785;28;20235;-55
2021/01/23 06:11:41;;;;;;;28.95;26.48;;;33.50;56.70;;;;;;4978128;28;20687;-55
2021/01/23 06:14:13;;;;;;;28.35;25.95;;;33.50;56.50;;;;;;4986666;28;20324;-55
2021/01/23 06:16:45;;;;;;;27.80;25.40;;;33.50;56.60;;;;;;4884544;29;20238;-51
2021/01/23 06:19:41;;;;;;;25.85;23.63;;;33.60;56.70;;;;;;4883635;29;20240;-58
2021/01/23 06:22:13;;;;;;;27.27;24.88;;;33.70;56.70;;;;;;4885161;29;20239;-58
2021/01/23 06:24:53;;;;;;;27.25;24.85;;;33.70;56.80;;;;;;4887404;29;20235;-51
2021/01/23 06:27:24;;;;;;;27.27;24.98;;;33.70;56.90;;;;;;4896503;29;20693;-54
2021/01/23 06:29:55;;;;;;;27.50;25.05;;;33.80;56.70;;;;;;4897856;29;20297;-55
2021/01/23 06:32:29;;;;;;;29.25;26.50;;;33.80;56.60;;;;;;4893310;29;20365;-55
2021/01/23 06:35:02;;;;;;;27.67;25.35;;;33.80;56.60;;;;;;4889602;29;20230;-55
2021/01/23 06:37:33;;;;;;;29.25;26.65;;;33.80;56.90;;;;;;4894993;29;20235;-56
2021/01/23 06:40:12;;;;;;;32.83;29.80;;;33.80;56.80;;;;;;4916347;28;20235;-55
2021/01/23 06:42:44;;;;;;;29.42;26.77;;;33.80;56.80;;;;;;4992789;28;20259;-55
2021/01/23 06:45:19;;;;;;;30.42;27.73;;;33.80;57.10;;;;;;4984701;28;20781;-55
2021/01/23 06:47:51;;;;;;;27.67;25.38;;;33.80;57.10;;;;;;5003160;28;20226;-55
2021/01/23 06:50:36;;;;;;;28.25;25.73;;;33.80;57.80;;;;;;5022578;28;20333;-57
2021/01/23 06:53:07;;;;;;;29.98;27.35;;;33.90;57.50;;;;;;5035116;28;20238;-53
2021/01/23 06:55:43;;;;;;;29.52;27.02;;;33.90;57.70;;;;;;5015708;28;20249;-59
2021/01/23 06:58:23;;;;;;;28.13;25.83;;;33.90;57.90;;;;;;5024670;28;20667;-56
2021/01/23 07:00:54;;;;;;;28.25;25.65;;;33.90;57.90;;;;;;5027053;28;20284;-56
2021/01/23 07:03:25;;;;;;;29.52;26.92;;;34.00;58.10;;;;;;5021837;28;20239;-58
2021/01/23 07:05:58;;;;;;;28.27;25.88;;;34.00;57.90;;;;;;5024819;28;20226;-58
2021/01/23 07:08:30;;;;;;;33.78;30.88;;;34.00;58.10;;;;;;5028429;28;20355;-58
2021/01/23 07:11:13;;;;;;;28.05;25.55;;;34.00;57.70;;;;;;5030007;28;20230;-54
2021/01/23 07:14:01;;;;;;;26.83;24.42;;;34.00;56.60;;;;;;5025706;28;20265;-58
2021/01/23 07:16:34;;;;;;;32.75;29.73;;;34.00;55.90;;;;;;5032039;28;20234;-56
2021/01/23 07:19:06;;;;;;;27.67;25.20;;;34.00;57.20;;;;;;5036693;28;20352;-56
2021/01/23 07:21:41;;;;;;;33.08;30.20;;;34.00;57.30;;;;;;5037712;28;20242;-54
2021/01/23 07:24:11;;;;;;;34.88;31.88;;;34.00;58.40;;;;;;5040045;28;20227;-55
2021/01/23 07:26:42;;;;;;;31.92;29.17;;;34.00;58.40;;;;;;5039897;28;20241;-55
2021/01/23 07:29:13;;;;;;;32.28;29.38;;;34.00;58.70;;;;;;5038694;28;20230;-53
2021/01/23 07:31:43;;;;;;;31.27;28.52;;;34.00;58.80;;;;;;5036226;28;20288;-53
2021/01/23 07:34:14;;;;;;;34.45;31.45;;;34.00;59.00;;;;;;5038455;28;20241;-53
2021/01/23 07:36:46;;;;;;;28.42;25.88;;;34.00;59.00;;;;;;5036701;28;20222;-58
2021/01/23 07:39:17;;;;;;;28.58;26.17;;;34.00;58.80;;;;;;5045352;28;20227;-53
2021/01/23 07:41:49;;;;;;;30.75;28.08;;;34.00;59.30;;;;;;5030561;28;20234;-53
2021/01/23 07:44:20;;;;;;;25.88;23.63;;;34.00;59.50;;;;;;5037700;28;20681;-55
2021/01/23 07:46:51;;;;;;;27.98;25.45;;;33.90;59.40;;;;;;5044431;28;22909;-55
2021/01/23 07:49:25;;;;;;;25.27;22.92;;;33.90;59.50;;;;;;5032809;28;20249;-56
2021/01/23 07:52:06;;;;;;;25.10;23.00;;;33.90;59.70;;;;;;5035004;28;20230;-55
2021/01/23 07:54:50;;;;;;;26.67;24.30;;;33.80;59.60;;;;;;5038983;28;20219;-54
2021/01/23 07:57:20;;;;;;;28.33;25.92;;;33.80;59.90;;;;;;4976361;28;20239;-53
2021/01/23 07:59:51;;;;;;;28.05;25.65;;;33.70;59.70;;;;;;4976225;28;20304;-54
2021/01/23 08:02:22;;;;;;;26.85;24.20;;;33.70;59.80;;;;;;4979365;28;20250;-55
2021/01/23 08:04:59;;;;;;;24.05;21.95;;;33.60;60.20;;;;;;4973562;28;20239;-55
2021/01/23 08:07:31;;;;;;;25.88;23.60;;;33.60;60.30;;;;;;4963914;28;20236;-58
2021/01/23 08:10:16;;;;;;;23.95;21.95;;;33.50;60.30;;;;;;4973105;28;20247;-58
2021/01/23 08:12:57;;;;;;;24.27;22.00;;;33.60;60.20;;;;;;4977665;28;20225;-59
2021/01/23 08:15:29;;;;;;;22.77;20.67;;;33.60;60.00;;;;;;4961644;28;20232;-58
2021/01/23 08:18:00;;;;;;;26.08;23.60;;;33.70;60.30;;;;;;4965299;28;20252;-57
2021/01/23 08:20:34;;;;;;;26.77;24.38;;;33.70;60.00;;;;;;4967444;28;20244;-58
2021/01/23 08:23:10;;;;;;;23.38;21.40;;;33.70;59.80;;;;;;4970774;28;20233;-60
2021/01/23 08:25:46;;;;;;;26.02;23.70;;;33.70;59.70;;;;;;4975294;28;20326;-58
2021/01/23 08:28:18;;;;;;;23.98;21.83;;;33.80;59.90;;;;;;5002511;28;20238;-57
2021/01/23 08:30:49;;;;;;;27.95;25.42;;;33.80;59.70;;;;;;5031343;28;20632;-57
2021/01/23 08:33:22;;;;;;;26.70;24.45;;;33.80;60.30;;;;;;5030783;28;20234;-57
2021/01/23 08:35:54;;;;;;;26.65;24.25;;;33.70;59.80;;;;;;5039233;28;20261;-57
2021/01/23 08:38:25;;;;;;;25.83;23.52;;;33.70;59.80;;;;;;5031624;28;20254;-57
2021/01/23 08:40:56;;;;;;;27.90;25.48;;;33.70;60.10;;;;;;5034822;28;20242;-56
2021/01/23 08:43:28;;;;;;;24.33;22.33;;;33.70;60.10;;;;;;5029260;28;20230;-56
2021/01/23 08:45:59;;;;;;;24.20;22.00;;;33.70;60.40;;;;;;5039408;28;20221;-59
2021/01/23 08:48:30;;;;;;;24.92;22.65;;;33.70;60.30;;;;;;5032502;28;20855;-57
2021/01/23 08:51:01;;;;;;;27.98;25.42;;;33.70;60.20;;;;;;5040596;28;20234;-56
2021/01/23 08:53:33;;;;;;;24.33;22.20;;;33.70;60.10;;;;;;5040902;28;20249;-58
2021/01/23 08:56:04;;;;;;;24.08;21.98;;;33.70;60.10;;;;;;5040299;28;20325;-56
2021/01/23 08:58:37;;;;;;;26.63;24.13;;;33.60;60.00;;;;;;5036244;28;20239;-50
2021/01/23 09:01:09;;;;;;;27.17;24.67;;;33.70;60.30;;;;;;5011388;28;20235;-55
2021/01/23 09:03:42;;;;;;;23.95;22.05;;;33.60;60.00;;;;;;5026798;28;20242;-55
2021/01/23 09:06:13;;;;;;;24.80;22.70;;;33.60;60.30;;;;;;5025155;28;20223;-53
2021/01/23 09:08:45;;;;;;;24.23;22.13;;;33.60;60.10;;;;;;5043998;28;20293;-56
2021/01/23 09:11:16;;;;;;;25.08;22.58;;;33.60;59.50;;;;;;4983287;28;20227;-56
2021/01/23 09:13:46;;;;;;;25.08;22.73;;;33.60;59.40;;;;;;5000779;28;20232;-56
2021/01/23 09:16:18;;;;;;;23.85;21.63;;;33.60;59.10;;;;;;4991496;28;20229;-54
2021/01/23 09:18:49;;;;;;;22.08;20.17;;;33.60;59.10;;;;;;4991774;28;20660;-52
2021/01/23 09:21:20;;;;;;;26.63;24.13;;;33.60;59.30;;;;;;4995001;28;20238;-55
2021/01/23 09:23:52;;;;;;;25.02;22.92;;;33.60;58.90;;;;;;4999943;28;20243;-56
2021/01/23 09:26:22;;;;;;;24.40;21.98;;;33.50;58.40;;;;;;4982308;28;20247;-56
2021/01/23 09:28:53;;;;;;;24.65;22.55;;;33.50;58.70;;;;;;4981506;28;20228;-56
2021/01/23 09:31:24;;;;;;;29.90;27.20;;;33.50;58.80;;;;;;4991962;28;20242;-53
2021/01/23 09:33:55;;;;;;;24.95;22.83;;;33.40;58.70;;;;;;4986281;28;20250;-55
2021/01/23 09:36:26;;;;;;;27.65;25.15;;;33.40;58.90;;;;;;5024748;28;20693;-53
2021/01/23 09:38:58;;;;;;;24.88;22.65;;;33.40;58.90;;;;;;5040528;28;20226;-56
2021/01/23 09:41:28;;;;;;;24.67;22.52;;;33.30;59.00;;;;;;5053318;28;20588;-57
2021/01/23 09:43:59;;;;;;;27.80;25.10;;;33.40;59.10;;;;;;5030905;28;20234;-57
2021/01/23 09:46:30;;;;;;;27.45;24.95;;;33.40;58.80;;;;;;5034639;28;20334;-51
2021/01/23 09:49:01;;;;;;;26.67;24.27;;;33.40;58.70;;;;;;5048498;28;20234;-57
2021/01/23 09:51:32;;;;;;;22.83;20.85;;;33.30;59.50;;;;;;5039739;28;20265;-57
2021/01/23 09:54:04;;;;;;;22.98;20.80;;;33.30;58.90;;;;;;5037075;28;20639;-57
2021/01/23 09:56:34;;;;;;;26.83;24.42;;;33.30;59.00;;;;;;5033895;28;20368;-57
2021/01/23 09:59:05;;;;;;;26.52;24.10;;;33.30;59.20;;;;;;5037241;28;20313;-57
2021/01/23 10:01:36;;;;;;;26.95;24.52;;;33.20;59.30;;;;;;5032184;28;20290;-55
2021/01/23 10:04:07;;;;;;;23.50;21.27;;;33.20;59.40;;;;;;5030932;28;20230;-55
2021/01/23 10:06:38;;;;;;;22.17;20.13;;;33.20;59.40;;;;;;5038590;28;20673;-54
2021/01/23 10:09:09;;;;;;;25.17;22.80;;;33.20;59.60;;;;;;5044030;28;20240;-55
2021/01/23 10:11:41;;;;;;;25.45;23.05;;;33.10;59.50;;;;;;5042219;28;20231;-56
2021/01/23 10:14:11;;;;;;;25.92;23.67;;;33.20;59.70;;;;;;5027027;28;20283;-56
2021/01/23 10:16:43;;;;;;;22.65;20.60;;;33.10;59.70;;;;;;5029119;28;20230;-57
2021/01/23 10:19:13;;;;;;;25.75;23.05;;;33.00;59.80;;;;;;5028610;28;20297;-56
2021/01/23 10:21:44;;;;;;;26.58;24.05;;;33.00;59.90;;;;;;5029024;28;20269;-55
2021/01/23 10:24:16;;;;;;;25.65;23.42;;;32.90;60.00;;;;;;5029862;28;20242;-56
2021/01/23 10:26:47;;;;;;;25.23;23.02;;;32.90;60.30;;;;;;5024115;28;20226;-57
2021/01/23 10:29:18;;;;;;;25.77;23.30;;;32.90;60.50;;;;;;5032266;28;20285;-56
2021/01/23 10:31:49;;;;;;;21.63;19.70;;;32.90;60.70;;;;;;5031906;28;20233;-54
2021/01/23 10:34:20;;;;;;;24.25;22.08;;;32.90;60.70;;;;;;5034060;28;20223;-56
2021/01/23 10:36:50;;;;;;;26.08;23.77;;;32.90;60.60;;;;;;5034031;28;20241;-57
2021/01/23 10:39:22;;;;;;;23.27;21.38;;;32.90;60.50;;;;;;5017982;28;20288;-56
2021/01/23 10:41:53;;;;;;;22.27;20.27;;;32.90;60.50;;;;;;5016040;28;20565;-57
2021/01/23 10:44:24;;;;;;;24.63;22.25;;;32.90;60.50;;;;;;5026750;28;20664;-57
2021/01/23 10:46:55;;;;;;;23.70;21.48;;;32.80;60.50;;;;;;5033872;28;20258;-57
2021/01/23 10:49:26;;;;;;;25.60;23.17;;;32.80;60.60;;;;;;5045510;28;20253;-57
2021/01/23 10:51:56;;;;;;;25.35;22.95;;;32.70;60.70;;;;;;5024875;28;20326;-56
2021/01/23 10:54:28;;;;;;;23.42;21.15;;;32.60;60.70;;;;;;5031370;28;20733;-57
2021/01/23 10:56:59;;;;;;;27.50;24.80;;;32.60;60.70;;;;;;5029402;28;20234;-56
2021/01/23 10:59:30;;;;;;;24.30;21.90;;;32.50;61.10;;;;;;5020991;28;20234;-55
2021/01/23 11:02:00;;;;;;;23.48;21.13;;;32.40;61.30;;;;;;5025472;28;20233;-57
2021/01/23 11:04:33;;;;;;;23.55;21.25;;;32.30;61.30;;;;;;4969169;28;20363;-57
2021/01/23 11:07:04;;;;;;;25.38;23.02;;;32.20;61.50;;;;;;4960603;28;20707;-57
2021/01/23 11:09:35;;;;;;;24.58;22.23;;;32.10;62.00;;;;;;4963830;28;20255;-56
2021/01/23 11:12:07;;;;;;;24.55;21.95;;;32.00;62.40;;;;;;4964039;28;20236;-57
2021/01/23 11:14:37;;;;;;;23.00;20.73;;;31.90;62.50;;;;;;4968493;28;20232;-57
2021/01/23 11:17:08;;;;;;;25.50;23.10;;;31.80;62.90;;;;;;4962139;28;20689;-55
2021/01/23 11:19:39;;;;;;;25.23;22.92;;;31.70;63.30;;;;;;4957977;28;20256;-57
2021/01/23 11:22:10;;;;;;;26.17;23.40;;;31.60;64.10;;;;;;4959039;28;20319;-56
2021/01/23 11:24:44;;;;;;;27.00;24.30;;;31.50;64.30;;;;;;4966280;28;21163;-56
2021/01/23 11:27:14;;;;;;;25.42;23.13;;;31.40;65.30;;;;;;4965164;28;20789;-57
2021/01/23 11:29:46;;;;;;;22.67;20.63;;;31.30;65.30;;;;;;5020621;28;20566;-56
2021/01/23 11:32:17;;;;;;;24.90;22.35;;;31.20;65.60;;;;;;5042593;28;20240;-55
2021/01/23 11:34:47;;;;;;;24.10;21.75;;;31.10;65.90;;;;;;5037503;28;20611;-56
2021/01/23 11:37:18;;;;;;;28.85;25.83;;;31.10;66.00;;;;;;5032862;28;20231;-53
2021/01/23 11:39:50;;;;;;;27.52;24.42;;;31.00;67.00;;;;;;5028261;28;20249;-57
2021/01/23 11:42:21;;;;;;;26.70;24.00;;;30.90;67.00;;;;;;5023692;28;20321;-56
2021/01/23 11:44:51;;;;;;;26.55;24.10;;;30.80;67.10;;;;;;5026812;28;20272;-57
2021/01/23 11:47:21;;;;;;;25.60;23.27;;;30.80;67.30;;;;;;5028395;28;20238;-57
2021/01/23 11:49:52;;;;;;;25.27;22.98;;;30.80;67.60;;;;;;5034926;28;20230;-57
2021/01/23 11:52:23;;;;;;;26.00;23.63;;;30.70;67.80;;;;;;5034689;28;20308;-57
2021/01/23 11:54:55;;;;;;;25.25;22.92;;;30.60;68.20;;;;;;5034558;28;20245;-54
2021/01/23 11:57:26;;;;;;;25.65;23.27;;;30.50;68.30;;;;;;5030732;28;20235;-56
2021/01/23 11:59:57;;;;;;;29.73;26.80;;;30.50;68.50;;;;;;5032148;28;20732;-54
2021/01/23 12:02:27;;;;;;;24.98;22.67;;;30.40;69.10;;;;;;5032772;28;20262;-58
2021/01/23 12:04:58;;;;;;;20.45;18.63;;;30.40;68.90;;;;;;5037845;28;20292;-56
2021/01/23 12:07:29;;;;;;;27.02;24.33;;;30.40;68.80;;;;;;5038365;28;20234;-57
2021/01/23 12:10:01;;;;;;;24.80;22.60;;;30.40;69.10;;;;;;5039219;28;20281;-58
2021/01/23 12:12:32;;;;;;;27.00;24.40;;;30.30;70.00;;;;;;5038866;28;20233;-57
2021/01/23 12:15:03;;;;;;;22.92;20.58;;;30.30;69.70;;;;;;5032564;28;20580;-57
2021/01/23 12:17:34;;;;;;;23.80;21.55;;;30.30;69.40;;;;;;5034700;28;20261;-56
2021/01/23 12:20:08;;;;;;;25.45;22.80;;;30.20;69.40;;;;;;5041896;28;20260;-57
2021/01/23 12:22:39;;;;;;;23.67;21.48;;;30.20;69.40;;;;;;5036778;28;20645;-58
2021/01/23 12:25:12;;;;;;;24.48;22.35;;;30.20;69.40;;;;;;5049075;28;20388;-56
2021/01/23 12:27:43;;;;;;;23.25;21.27;;;30.20;69.60;;;;;;5032084;28;20273;-57
2021/01/23 12:30:14;;;;;;;22.65;20.65;;;30.20;69.50;;;;;;5035362;28;20230;-56
2021/01/23 12:32:46;;;;;;;23.75;21.65;;;30.20;69.60;;;;;;5034588;28;20231;-57
2021/01/23 12:35:17;;;;;;;23.60;21.38;;;30.20;69.60;;;;;;5032695;28;20230;-57
2021/01/23 12:37:48;;;;;;;23.65;21.55;;;30.20;69.70;;;;;;5030163;28;20237;-54
2021/01/23 12:40:20;;;;;;;22.60;20.58;;;30.10;69.60;;;;;;5041490;28;20685;-57
2021/01/23 12:42:50;;;;;;;24.48;22.05;;;30.20;69.80;;;;;;5027098;28;20254;-57
2021/01/23 12:45:21;;;;;;;24.13;21.92;;;30.10;69.70;;;;;;5024711;28;20237;-57
2021/01/23 12:47:52;;;;;;;23.73;21.38;;;30.10;69.70;;;;;;5020780;28;20314;-54
2021/01/23 12:50:23;;;;;;;23.30;21.10;;;30.10;69.70;;;;;;5032520;28;20253;-54
2021/01/23 12:52:53;;;;;;;22.33;19.98;;;30.10;69.80;;;;;;5030021;28;20230;-55